Weather at Preston Airport

Public forecast

Using degrees Celsius for public forecast. Weather courtesy of forecast.io.

Closest aviation weather report (METAR) to Preston Airport

Closest report is Frank Pais International Airport, 37.0 nm (68.5 km) W. Retrieved 2021/09/25 23:50 UTC (46 minutes ago):

MUHG 252350Z VRB03KT 9000 -RA FEW042 BKN090 27/25 Q1014

Closest aviation forecast (TAF) to Preston Airport

Closest forecast is Frank Pais International Airport, 37.0 nm (68.5 km) W. Retrieved 2021-09-26 00:03 UTC (33 minutes ago):

TAF MUHG 252300Z 2600/2624 06010KT 9000 SCT030 BECMG 2601/2603 VRB03KT BECMG 2615/2617 07008KT TEMPO 2618/2624 SCT020CB BKN030